createdAt,value
2023-03-31T00:00:57.845Z,13.45
2023-03-31T00:03:25.863Z,13.45
2023-03-31T00:05:58.101Z,13.46
2023-03-31T00:08:30.358Z,13.44
2023-03-31T00:10:59.998Z,13.44
2023-03-31T00:13:29.444Z,13.42
2023-03-31T00:16:01.660Z,13.46
2023-03-31T00:18:29.776Z,13.60
2023-03-31T00:21:08.151Z,13.60
2023-03-31T00:23:35.947Z,13.54
2023-03-31T00:26:04.099Z,13.54
2023-03-31T00:28:33.811Z,13.52
2023-03-31T00:31:03.013Z,13.51
2023-03-31T00:33:30.796Z,13.52
2023-03-31T00:36:01.922Z,13.50
2023-03-31T00:38:30.962Z,13.50
2023-03-31T00:40:59.111Z,13.52
2023-03-31T00:43:31.172Z,13.52
2023-03-31T00:46:08.428Z,13.47
2023-03-31T00:48:38.706Z,13.47
2023-03-31T00:51:08.370Z,13.44
2023-03-31T00:53:37.720Z,13.46
2023-03-31T00:56:10.138Z,13.47
2023-03-31T00:58:43.916Z,13.52
2023-03-31T01:01:17.343Z,13.50
2023-03-31T01:03:46.794Z,13.54
2023-03-31T01:06:19.663Z,13.56
2023-03-31T01:08:50.000Z,13.65
2023-03-31T01:11:21.149Z,13.72
2023-03-31T01:13:51.701Z,13.80
2023-03-31T01:16:20.866Z,13.87
2023-03-31T01:18:49.953Z,13.96
2023-03-31T01:21:57.001Z,14.09
2023-03-31T01:25:04.865Z,14.11
2023-03-31T01:27:50.834Z,14.19
2023-03-31T01:30:52.612Z,14.27
2023-03-31T01:33:51.965Z,14.33
2023-03-31T01:36:51.630Z,14.36
2023-03-31T01:39:47.295Z,14.36
2023-03-31T01:42:22.567Z,14.39
2023-03-31T01:45:00.957Z,14.36
2023-03-31T01:47:40.480Z,14.38
2023-03-31T01:50:18.437Z,14.37
2023-03-31T01:52:51.028Z,14.30
2023-03-31T01:55:24.451Z,14.32
2023-03-31T01:57:56.105Z,14.34
2023-03-31T02:00:29.567Z,14.36
2023-03-31T02:03:02.481Z,14.42
2023-03-31T02:05:36.815Z,14.43
2023-03-31T02:08:09.637Z,14.49
2023-03-31T02:10:37.871Z,14.50
2023-03-31T02:13:09.189Z,14.48
2023-03-31T02:15:40.807Z,14.47
2023-03-31T02:18:12.033Z,14.46
2023-03-31T02:20:42.060Z,14.49
2023-03-31T02:23:13.542Z,14.49
2023-03-31T02:25:47.080Z,14.50
2023-03-31T02:28:20.915Z,14.47
2023-03-31T02:30:55.779Z,14.45
2023-03-31T02:33:23.532Z,14.41
2023-03-31T02:35:51.559Z,14.41
2023-03-31T02:38:19.369Z,14.36
2023-03-31T02:40:47.081Z,14.31
2023-03-31T02:43:16.078Z,14.30
2023-03-31T02:45:46.488Z,14.34
2023-03-31T02:48:19.755Z,14.27
2023-03-31T02:51:18.123Z,14.26
2023-03-31T02:54:05.323Z,14.19
2023-03-31T02:56:46.037Z,14.21
2023-03-31T02:59:33.168Z,14.21
2023-03-31T03:02:13.898Z,14.19
2023-03-31T03:05:08.089Z,14.21
2023-03-31T03:07:41.955Z,14.22
2023-03-31T03:10:14.409Z,14.22
2023-03-31T03:12:49.779Z,14.19
2023-03-31T03:15:25.737Z,14.25
2023-03-31T03:17:54.572Z,14.31
2023-03-31T03:20:23.570Z,14.22
2023-03-31T03:22:51.579Z,14.15
2023-03-31T03:25:20.347Z,14.16
2023-03-31T03:27:48.243Z,14.19
2023-03-31T03:30:16.306Z,14.17
2023-03-31T03:32:46.564Z,14.04
2023-03-31T03:35:14.299Z,13.99
2023-03-31T03:37:41.908Z,13.92
2023-03-31T03:40:10.878Z,13.98
2023-03-31T03:42:39.103Z,14.02
2023-03-31T03:45:07.701Z,13.92
2023-03-31T03:47:36.122Z,13.89
2023-03-31T03:50:06.579Z,13.78
2023-03-31T03:52:34.187Z,13.80
2023-03-31T03:55:03.066Z,13.68
2023-03-31T03:57:30.768Z,13.66
2023-03-31T03:59:58.434Z,13.63
2023-03-31T04:02:28.658Z,13.55
2023-03-31T04:04:56.505Z,13.52
2023-03-31T04:07:25.495Z,13.57
2023-03-31T04:09:53.118Z,13.58
2023-03-31T04:12:20.798Z,13.57
2023-03-31T04:14:48.429Z,13.54
2023-03-31T04:17:16.179Z,13.56
2023-03-31T04:19:43.880Z,13.47
2023-03-31T04:22:15.228Z,13.44
2023-03-31T04:24:46.566Z,13.41
2023-03-31T04:27:17.299Z,13.42
2023-03-31T04:29:54.621Z,13.46
2023-03-31T04:32:22.612Z,13.44
2023-03-31T04:34:50.846Z,13.45
2023-03-31T04:37:18.608Z,13.49
2023-03-31T04:39:50.631Z,13.53
2023-03-31T04:42:18.261Z,13.64
2023-03-31T04:44:46.100Z,13.54
2023-03-31T04:47:13.764Z,13.48
2023-03-31T04:49:41.527Z,13.47
2023-03-31T04:52:09.198Z,13.42
2023-03-31T04:54:36.795Z,13.44
2023-03-31T04:57:05.896Z,13.38
2023-03-31T04:59:33.721Z,13.37
2023-03-31T05:02:01.335Z,13.41
2023-03-31T05:04:28.935Z,13.33
2023-03-31T05:06:56.642Z,13.24
2023-03-31T05:09:24.317Z,13.19
2023-03-31T05:11:52.073Z,13.21
2023-03-31T05:14:21.856Z,13.22
2023-03-31T05:16:49.587Z,13.26
2023-03-31T05:19:18.276Z,13.24
2023-03-31T05:21:46.658Z,13.25
2023-03-31T05:24:14.804Z,13.13
2023-03-31T05:26:46.795Z,13.07
2023-03-31T05:29:16.485Z,13.01
2023-03-31T05:31:45.727Z,12.99
2023-03-31T05:34:13.619Z,12.88
2023-03-31T05:36:41.254Z,12.81
2023-03-31T05:39:08.973Z,12.83
2023-03-31T05:41:36.840Z,12.80
2023-03-31T05:44:04.485Z,12.76
2023-03-31T05:46:32.473Z,12.64
2023-03-31T05:49:02.499Z,12.52
2023-03-31T05:51:30.307Z,12.48
2023-03-31T05:53:57.937Z,12.46
2023-03-31T05:56:27.579Z,12.47
2023-03-31T05:58:55.277Z,12.33
2023-03-31T06:01:23.535Z,12.39
2023-03-31T06:03:51.729Z,12.32
2023-03-31T06:06:21.406Z,12.30
2023-03-31T06:08:50.012Z,12.16
2023-03-31T06:11:19.467Z,12.08
2023-03-31T06:13:47.396Z,12.06
2023-03-31T06:16:17.141Z,12.03
2023-03-31T06:18:45.891Z,12.11
2023-03-31T06:21:16.248Z,12.13
2023-03-31T06:23:46.155Z,12.10
2023-03-31T06:26:15.854Z,12.11
2023-03-31T06:28:43.593Z,12.07
2023-03-31T06:31:13.109Z,12.06
2023-03-31T06:33:41.692Z,12.09
2023-03-31T06:36:10.454Z,12.14
2023-03-31T06:38:39.259Z,12.15
2023-03-31T06:41:09.645Z,12.17
2023-03-31T06:43:37.319Z,12.22
2023-03-31T06:46:07.792Z,12.19
2023-03-31T06:48:35.704Z,12.21
2023-03-31T06:51:05.823Z,12.26
2023-03-31T06:53:33.746Z,12.32
2023-03-31T06:56:02.121Z,12.31
2023-03-31T06:58:31.726Z,12.34
2023-03-31T07:01:00.296Z,12.39
2023-03-31T07:03:29.505Z,12.32
2023-03-31T07:05:57.442Z,12.38
2023-03-31T07:08:25.618Z,12.44
2023-03-31T07:10:57.654Z,12.47
2023-03-31T07:13:26.380Z,12.50
2023-03-31T07:15:56.298Z,12.49
2023-03-31T07:18:26.220Z,12.40
2023-03-31T07:20:54.303Z,12.48
2023-03-31T07:23:22.066Z,12.38
2023-03-31T07:25:49.890Z,12.42
2023-03-31T07:28:18.080Z,12.39
2023-03-31T07:30:48.463Z,12.44
2023-03-31T07:33:17.540Z,12.53
2023-03-31T07:35:46.015Z,12.61
2023-03-31T07:38:16.059Z,12.67
2023-03-31T07:40:46.191Z,12.64
2023-03-31T07:43:15.301Z,12.74
2023-03-31T07:45:45.085Z,12.73
2023-03-31T07:48:12.922Z,12.82
2023-03-31T07:50:41.968Z,12.95
2023-03-31T07:53:09.923Z,12.91
2023-03-31T07:55:37.739Z,12.95
2023-03-31T07:58:05.368Z,12.99
2023-03-31T08:00:33.196Z,13.06
2023-03-31T08:03:00.895Z,13.09
2023-03-31T08:05:28.986Z,13.12
2023-03-31T08:08:01.453Z,13.09
2023-03-31T08:10:29.363Z,13.11
2023-03-31T08:12:57.421Z,13.16
2023-03-31T08:15:25.761Z,13.10
2023-03-31T08:17:53.429Z,13.07
2023-03-31T08:20:21.330Z,13.04
2023-03-31T08:22:51.045Z,13.07
2023-03-31T08:25:21.112Z,13.12
2023-03-31T08:27:50.939Z,13.10
2023-03-31T08:30:20.488Z,13.17
2023-03-31T08:32:48.211Z,13.21
2023-03-31T08:35:16.101Z,13.18
2023-03-31T08:37:43.847Z,13.27
2023-03-31T08:40:15.698Z,13.28
2023-03-31T08:42:51.364Z,13.37
2023-03-31T08:45:23.174Z,13.46
2023-03-31T08:47:54.817Z,13.65
2023-03-31T08:50:26.261Z,14.02
2023-03-31T08:53:00.723Z,14.18
2023-03-31T08:55:35.843Z,14.25
2023-03-31T08:58:14.628Z,14.27
2023-03-31T09:00:51.006Z,14.29
2023-03-31T09:03:27.699Z,14.38
2023-03-31T09:06:04.378Z,14.60
2023-03-31T09:08:37.555Z,14.59
2023-03-31T09:11:27.304Z,14.43
2023-03-31T09:14:17.015Z,14.21
2023-03-31T09:16:52.824Z,13.96
2023-03-31T09:19:31.912Z,13.78
2023-03-31T09:22:01.533Z,13.68
2023-03-31T09:24:32.875Z,13.53
2023-03-31T09:27:03.526Z,13.44
2023-03-31T09:29:41.036Z,13.33
2023-03-31T09:32:16.306Z,13.10
2023-03-31T09:34:45.681Z,12.97
2023-03-31T09:37:14.852Z,12.76
2023-03-31T09:39:42.554Z,12.68
2023-03-31T09:42:13.306Z,12.65
2023-03-31T09:44:44.139Z,12.62
2023-03-31T09:47:16.284Z,12.60
2023-03-31T09:49:54.146Z,12.71
2023-03-31T09:52:29.995Z,12.74
2023-03-31T09:55:01.315Z,12.80
2023-03-31T09:57:33.519Z,12.94
2023-03-31T10:00:16.251Z,13.01
2023-03-31T10:02:45.883Z,13.08
2023-03-31T10:05:26.052Z,13.14
2023-03-31T10:08:26.299Z,13.31
2023-03-31T10:10:56.200Z,13.88
2023-03-31T10:13:26.129Z,15.41
2023-03-31T10:15:55.394Z,17.97
2023-03-31T10:18:34.513Z,20.01
2023-03-31T10:21:05.410Z,20.61
2023-03-31T10:23:36.218Z,20.91
2023-03-31T10:26:06.136Z,20.88
2023-03-31T10:28:36.805Z,19.83
2023-03-31T10:31:06.345Z,19.00
2023-03-31T10:33:35.659Z,18.45
2023-03-31T10:36:09.675Z,17.27
2023-03-31T10:38:44.822Z,16.44
2023-03-31T10:41:14.517Z,15.98
2023-03-31T10:43:43.977Z,15.91
2023-03-31T10:46:13.303Z,15.99
2023-03-31T10:48:42.628Z,16.12
2023-03-31T10:51:17.862Z,16.10
2023-03-31T10:53:48.762Z,16.18
2023-03-31T10:56:36.144Z,16.40
2023-03-31T10:59:20.039Z,16.57
2023-03-31T11:02:04.793Z,16.78
2023-03-31T11:04:45.829Z,16.57
2023-03-31T11:07:28.358Z,16.31
2023-03-31T11:10:13.124Z,16.15
2023-03-31T11:12:46.972Z,15.90
2023-03-31T11:15:22.975Z,15.71
2023-03-31T11:18:03.014Z,15.59
2023-03-31T11:20:37.748Z,15.46
2023-03-31T11:23:14.954Z,15.55
2023-03-31T11:25:53.869Z,15.94
2023-03-31T11:28:33.702Z,16.37
2023-03-31T11:31:13.523Z,16.68
2023-03-31T11:34:05.591Z,17.39
2023-03-31T11:36:51.715Z,18.24
2023-03-31T11:39:32.123Z,19.20
2023-03-31T11:42:04.712Z,20.08
2023-03-31T11:44:41.492Z,20.44
2023-03-31T11:47:12.267Z,21.09
2023-03-31T11:49:43.268Z,21.30
2023-03-31T11:52:16.294Z,20.69
2023-03-31T11:54:52.540Z,19.84
2023-03-31T11:57:26.211Z,19.01
2023-03-31T11:59:58.776Z,18.04
2023-03-31T12:02:39.743Z,17.51
2023-03-31T12:05:10.813Z,17.66
2023-03-31T12:07:42.885Z,17.67
2023-03-31T12:10:19.823Z,17.36
2023-03-31T12:12:56.141Z,17.19
2023-03-31T12:15:26.744Z,17.21
2023-03-31T12:18:00.670Z,17.59
2023-03-31T12:20:33.405Z,18.26
2023-03-31T12:23:03.680Z,18.58
2023-03-31T12:25:44.592Z,19.23
2023-03-31T12:28:13.858Z,19.14
2023-03-31T12:30:44.388Z,19.45
2023-03-31T12:33:20.403Z,19.00
2023-03-31T12:36:01.023Z,18.65
2023-03-31T12:38:51.809Z,18.27
2023-03-31T12:41:27.076Z,18.30
2023-03-31T12:44:18.454Z,17.92
2023-03-31T12:47:04.011Z,17.72
2023-03-31T12:49:44.729Z,17.32
2023-03-31T12:52:19.145Z,17.16
2023-03-31T12:55:03.462Z,17.08
2023-03-31T12:57:31.240Z,17.02
2023-03-31T13:00:22.126Z,16.81
2023-03-31T13:02:50.926Z,16.79
2023-03-31T13:05:48.442Z,16.74
2023-03-31T13:08:53.322Z,16.66
2023-03-31T13:11:22.970Z,16.39
2023-03-31T13:14:01.076Z,16.28
2023-03-31T13:16:30.917Z,16.11
2023-03-31T13:18:59.129Z,15.92
2023-03-31T13:21:27.517Z,15.92
2023-03-31T13:24:00.994Z,15.95
2023-03-31T13:26:40.501Z,15.93
2023-03-31T13:29:22.622Z,15.85
2023-03-31T13:32:23.374Z,15.87
2023-03-31T13:34:57.626Z,16.01
2023-03-31T13:37:57.674Z,16.06
2023-03-31T13:40:46.979Z,16.13
2023-03-31T13:43:38.322Z,16.13
2023-03-31T13:46:28.922Z,16.07
2023-03-31T13:49:10.946Z,16.18
2023-03-31T13:51:51.756Z,16.30
2023-03-31T13:54:52.214Z,16.29
2023-03-31T13:57:50.056Z,16.44
2023-03-31T14:00:29.481Z,16.52
2023-03-31T14:03:28.423Z,16.64
2023-03-31T14:06:01.872Z,16.50
2023-03-31T14:08:41.015Z,16.47
2023-03-31T14:11:22.563Z,16.38
2023-03-31T14:14:01.308Z,16.36
2023-03-31T14:16:32.623Z,16.34
2023-03-31T14:19:14.667Z,16.40
2023-03-31T14:21:47.961Z,16.38
2023-03-31T14:24:25.117Z,16.56
2023-03-31T14:27:01.698Z,16.74
2023-03-31T14:29:37.373Z,16.69
2023-03-31T14:32:16.055Z,16.74
2023-03-31T14:35:06.885Z,16.70
2023-03-31T14:37:36.314Z,16.70
2023-03-31T14:40:05.576Z,16.62
2023-03-31T14:42:39.459Z,16.64
2023-03-31T14:45:16.998Z,16.63
2023-03-31T14:47:55.038Z,16.58
2023-03-31T14:50:23.380Z,16.41
2023-03-31T14:52:56.391Z,16.19
2023-03-31T14:55:31.947Z,15.97
2023-03-31T14:58:04.053Z,15.63
2023-03-31T15:00:34.363Z,15.27
2023-03-31T15:03:06.801Z,14.75
2023-03-31T15:05:37.281Z,14.17
2023-03-31T15:08:09.020Z,14.00
2023-03-31T15:10:40.082Z,14.05
2023-03-31T15:13:10.453Z,13.99
2023-03-31T15:15:38.099Z,13.94
2023-03-31T15:18:07.328Z,13.92
2023-03-31T15:20:38.232Z,13.85
2023-03-31T15:23:24.852Z,13.97
2023-03-31T15:25:57.802Z,13.98
2023-03-31T15:28:30.512Z,14.04
2023-03-31T15:31:09.445Z,14.02
2023-03-31T15:33:41.623Z,14.10
2023-03-31T15:36:12.219Z,14.17
2023-03-31T15:38:41.887Z,14.34
2023-03-31T15:41:13.795Z,14.40
2023-03-31T15:43:48.711Z,14.50
2023-03-31T15:46:21.126Z,14.53
2023-03-31T15:48:53.937Z,14.54
2023-03-31T15:51:29.583Z,14.51
2023-03-31T15:53:58.680Z,14.53
2023-03-31T15:56:33.517Z,14.58
2023-03-31T15:59:05.011Z,14.58
2023-03-31T16:01:34.741Z,14.53
2023-03-31T16:04:07.318Z,14.57
2023-03-31T16:06:43.401Z,14.56
2023-03-31T16:09:17.463Z,14.50
2023-03-31T16:11:49.851Z,14.52
2023-03-31T16:14:21.632Z,14.53
2023-03-31T16:16:53.807Z,14.56
2023-03-31T16:19:24.027Z,14.67
2023-03-31T16:21:55.129Z,14.81
2023-03-31T16:24:31.806Z,14.84
2023-03-31T16:27:02.688Z,14.84
2023-03-31T16:29:30.292Z,14.67
2023-03-31T16:32:09.716Z,14.60
2023-03-31T16:34:53.594Z,14.48
2023-03-31T16:37:21.327Z,14.26
2023-03-31T16:39:50.439Z,14.27
2023-03-31T16:42:18.384Z,14.25
2023-03-31T16:47:36.051Z,14.14
2023-03-31T16:50:08.866Z,14.17
2023-03-31T16:52:37.187Z,14.17
2023-03-31T16:55:06.777Z,14.26
2023-03-31T16:57:34.555Z,14.30
2023-03-31T17:00:02.526Z,14.33
2023-03-31T17:02:30.478Z,14.27
2023-03-31T17:05:06.268Z,14.26
2023-03-31T17:07:40.697Z,14.24
2023-03-31T17:10:11.221Z,14.27
2023-03-31T17:12:38.903Z,14.29
2023-03-31T17:15:07.849Z,14.21
2023-03-31T17:17:36.887Z,14.21
2023-03-31T17:20:05.307Z,14.15
2023-03-31T17:22:33.082Z,14.05
2023-03-31T17:25:01.088Z,13.97
2023-03-31T17:27:30.902Z,14.04
2023-03-31T17:29:58.699Z,14.03
2023-03-31T17:32:27.940Z,14.06
2023-03-31T17:34:55.605Z,14.12
2023-03-31T17:37:23.696Z,14.04
2023-03-31T17:39:52.312Z,14.03
2023-03-31T17:42:20.378Z,14.01
2023-03-31T17:44:51.687Z,14.06
2023-03-31T17:47:20.408Z,14.08
2023-03-31T17:49:48.316Z,14.07
2023-03-31T17:52:16.198Z,14.03
2023-03-31T17:54:44.570Z,13.98
2023-03-31T17:57:12.307Z,13.98
2023-03-31T17:59:39.995Z,14.11
2023-03-31T18:02:12.970Z,14.02
2023-03-31T18:04:40.738Z,14.04
2023-03-31T18:07:08.541Z,14.05
2023-03-31T18:09:36.683Z,14.01
2023-03-31T18:12:04.874Z,13.93
2023-03-31T18:14:32.766Z,13.87
2023-03-31T18:17:00.515Z,13.94
2023-03-31T18:19:29.912Z,13.92
2023-03-31T18:21:57.548Z,13.87
2023-03-31T18:24:25.557Z,13.84
2023-03-31T18:26:53.314Z,13.73
2023-03-31T18:29:21.134Z,13.71
2023-03-31T18:31:48.906Z,13.66
2023-03-31T18:34:16.584Z,13.72
2023-03-31T18:36:46.218Z,13.75
2023-03-31T18:39:14.066Z,13.72
2023-03-31T18:41:45.753Z,13.81
2023-03-31T18:44:15.987Z,13.83
2023-03-31T18:46:43.873Z,13.87
2023-03-31T18:49:12.057Z,13.82
2023-03-31T18:51:39.696Z,13.74
2023-03-31T18:54:08.764Z,13.77
2023-03-31T18:56:36.430Z,13.70
2023-03-31T18:59:05.209Z,13.78
2023-03-31T19:01:35.011Z,13.75
2023-03-31T19:04:02.706Z,13.70
2023-03-31T19:06:30.532Z,13.70
2023-03-31T19:08:58.181Z,13.67
2023-03-31T19:11:27.325Z,13.74
2023-03-31T19:13:55.928Z,13.61
2023-03-31T19:16:26.655Z,13.63
2023-03-31T19:18:55.230Z,13.61
2023-03-31T19:21:23.327Z,13.54
2023-03-31T19:23:51.006Z,13.58
2023-03-31T19:26:19.696Z,13.66
2023-03-31T19:28:49.045Z,13.58
2023-03-31T19:31:16.973Z,13.41
2023-03-31T19:33:44.604Z,13.34
2023-03-31T19:36:12.428Z,13.31
2023-03-31T19:38:40.598Z,13.31
2023-03-31T19:41:09.532Z,13.29
2023-03-31T19:43:37.165Z,13.19
2023-03-31T19:46:06.401Z,13.07
2023-03-31T19:48:34.368Z,12.98
2023-03-31T19:51:05.790Z,13.02
2023-03-31T19:53:33.904Z,13.02
2023-03-31T19:56:03.122Z,13.01
2023-03-31T19:58:35.169Z,12.87
2023-03-31T20:01:03.638Z,12.83
2023-03-31T20:03:33.085Z,12.91
2023-03-31T20:06:06.982Z,12.95
2023-03-31T20:08:34.804Z,12.94
2023-03-31T20:11:02.983Z,12.95
2023-03-31T20:13:32.306Z,12.89
2023-03-31T20:16:01.857Z,12.74
2023-03-31T20:18:30.063Z,12.73
2023-03-31T20:21:07.313Z,12.65
2023-03-31T20:23:36.479Z,12.70
2023-03-31T20:26:04.460Z,12.74
2023-03-31T20:28:34.703Z,12.73
2023-03-31T20:31:07.570Z,12.73
2023-03-31T20:33:35.266Z,12.73
2023-03-31T20:36:06.144Z,12.77
2023-03-31T20:38:34.224Z,12.84
2023-03-31T20:41:01.901Z,12.78
2023-03-31T20:46:45.684Z,12.74
2023-03-31T20:52:04.530Z,12.65
2023-03-31T20:54:32.462Z,12.70
2023-03-31T20:57:01.540Z,12.68
2023-03-31T20:59:29.431Z,12.66
2023-03-31T21:01:57.054Z,12.58
2023-03-31T21:04:24.737Z,12.63
2023-03-31T21:06:53.767Z,12.68
2023-03-31T21:09:23.995Z,12.71
2023-03-31T21:11:52.613Z,12.72
2023-03-31T21:14:20.497Z,12.77
2023-03-31T21:16:48.113Z,12.85
2023-03-31T21:19:15.840Z,12.87
2023-03-31T21:21:44.177Z,12.87
2023-03-31T21:24:12.844Z,12.82
2023-03-31T21:26:41.976Z,12.75
2023-03-31T21:29:09.940Z,12.76
2023-03-31T21:31:37.867Z,12.78
2023-03-31T21:34:05.634Z,12.73
2023-03-31T21:36:33.349Z,12.78
2023-03-31T21:39:00.974Z,12.81
2023-03-31T21:41:30.487Z,12.89
2023-03-31T21:46:53.592Z,13.00
2023-03-31T21:49:21.839Z,13.02
2023-03-31T21:51:49.547Z,13.06
2023-03-31T21:54:17.269Z,13.08
2023-03-31T21:56:44.954Z,13.12
2023-03-31T21:59:14.085Z,13.21
2023-03-31T22:01:41.783Z,13.23
2023-03-31T22:04:09.481Z,13.17
2023-03-31T22:06:39.329Z,13.18
2023-03-31T22:09:07.125Z,13.24
2023-03-31T22:11:34.911Z,13.21
2023-03-31T22:14:04.725Z,13.16
2023-03-31T22:16:33.822Z,13.16
2023-03-31T22:19:01.473Z,13.13
2023-03-31T22:21:29.568Z,13.08
2023-03-31T22:24:00.348Z,13.09
2023-03-31T22:26:29.781Z,13.14
2023-03-31T22:34:43.605Z,13.01
2023-03-31T22:37:11.330Z,12.97
2023-03-31T22:39:39.187Z,13.02
2023-03-31T22:42:07.640Z,13.08
2023-03-31T22:44:35.758Z,13.12
2023-03-31T22:47:04.973Z,13.11
2023-03-31T22:52:41.872Z,13.02
2023-03-31T22:55:10.022Z,13.06
2023-03-31T22:57:38.309Z,13.02
2023-03-31T23:00:07.627Z,13.00
2023-03-31T23:02:36.760Z,12.98
2023-03-31T23:05:04.841Z,12.97
2023-03-31T23:07:32.585Z,12.97
2023-03-31T23:10:00.233Z,12.98
2023-03-31T23:12:29.222Z,12.96
2023-03-31T23:14:57.023Z,12.90
2023-03-31T23:17:24.758Z,12.92
2023-03-31T23:19:53.893Z,12.85
2023-03-31T23:22:21.698Z,12.87
2023-03-31T23:24:50.447Z,12.80
2023-03-31T23:27:18.705Z,12.81
2023-03-31T23:29:47.014Z,12.84
2023-03-31T23:32:15.681Z,12.84
2023-03-31T23:34:43.815Z,12.74
2023-03-31T23:37:14.464Z,12.74
2023-03-31T23:39:42.489Z,12.71
2023-03-31T23:42:12.566Z,12.64
2023-03-31T23:44:40.293Z,12.69
2023-03-31T23:47:08.442Z,12.65
2023-03-31T23:49:36.145Z,12.56
2023-03-31T23:52:04.204Z,12.53
2023-03-31T23:54:33.429Z,12.52
2023-03-31T23:57:01.164Z,12.56
2023-03-31T23:59:28.809Z,12.57
